createdAt,value
2022-12-29T00:01:40.248Z,13.00
2022-12-29T00:04:15.328Z,14.50
2022-12-29T00:06:45.821Z,17.50
2022-12-29T00:09:17.494Z,18.10
2022-12-29T00:11:47.183Z,16.30
2022-12-29T00:14:35.504Z,16.90
2022-12-29T00:17:04.960Z,18.00
2022-12-29T00:19:55.475Z,18.30
2022-12-29T00:22:44.032Z,18.40
2022-12-29T00:25:33.027Z,17.10
2022-12-29T00:28:20.588Z,17.70
2022-12-29T00:31:08.345Z,19.40
2022-12-29T00:33:55.835Z,19.10
2022-12-29T00:36:36.127Z,16.20
2022-12-29T00:39:36.077Z,13.30
2022-12-29T00:42:28.861Z,11.20
2022-12-29T00:44:58.163Z,10.00
2022-12-29T00:47:27.424Z,10.20
2022-12-29T00:49:56.788Z,9.50
2022-12-29T00:52:26.355Z,9.40
2022-12-29T00:54:55.901Z,7.80
2022-12-29T00:57:25.396Z,7.90
2022-12-29T00:59:55.193Z,8.00
2022-12-29T01:02:26.117Z,8.80
2022-12-29T01:04:58.362Z,9.70
2022-12-29T01:07:27.960Z,10.20
2022-12-29T01:10:12.543Z,11.10
2022-12-29T01:12:42.093Z,12.00
2022-12-29T01:15:17.583Z,14.30
2022-12-29T01:17:48.022Z,17.30
2022-12-29T01:20:17.838Z,16.70
2022-12-29T01:22:48.363Z,15.70
2022-12-29T01:25:17.559Z,14.20
2022-12-29T01:27:47.380Z,12.80
2022-12-29T01:30:16.744Z,10.40
2022-12-29T01:32:47.696Z,11.90
2022-12-29T01:35:17.082Z,9.70
2022-12-29T01:37:47.337Z,9.90
2022-12-29T01:40:18.536Z,9.30
2022-12-29T01:42:48.317Z,9.20
2022-12-29T01:45:19.563Z,9.40
2022-12-29T01:48:06.775Z,9.70
2022-12-29T01:50:47.948Z,9.40
2022-12-29T01:53:29.434Z,10.50
2022-12-29T01:56:09.306Z,11.40
2022-12-29T01:58:45.219Z,11.80
2022-12-29T02:01:16.540Z,11.30
2022-12-29T02:03:49.398Z,10.70
2022-12-29T02:06:32.547Z,11.10
2022-12-29T02:09:02.380Z,9.30
2022-12-29T02:14:13.414Z,7.90
2022-12-29T02:16:57.370Z,8.10
2022-12-29T02:19:57.137Z,7.40
2022-12-29T02:22:36.006Z,8.50
2022-12-29T02:25:10.862Z,7.30
2022-12-29T02:28:28.464Z,8.30
2022-12-29T02:31:28.776Z,8.30
2022-12-29T02:34:43.627Z,7.20
2022-12-29T02:37:50.067Z,7.20
2022-12-29T02:40:50.176Z,8.60
2022-12-29T02:44:12.272Z,7.10
2022-12-29T02:47:23.766Z,6.80
2022-12-29T02:50:05.134Z,7.60
2022-12-29T02:52:51.829Z,6.90
2022-12-29T02:55:21.295Z,7.30
2022-12-29T02:58:27.938Z,6.60
2022-12-29T03:01:30.223Z,7.20
2022-12-29T03:04:56.796Z,6.70
2022-12-29T03:07:49.357Z,5.70
2022-12-29T03:11:00.340Z,7.00
2022-12-29T03:14:16.816Z,6.90
2022-12-29T03:17:03.340Z,7.80
2022-12-29T03:19:50.995Z,7.60
2022-12-29T03:22:28.712Z,8.70
2022-12-29T03:25:34.174Z,8.70
2022-12-29T03:30:51.625Z,10.20
2022-12-29T03:33:26.659Z,11.30
2022-12-29T03:36:04.291Z,12.20
2022-12-29T03:38:57.267Z,13.80
2022-12-29T03:41:32.578Z,14.20
2022-12-29T03:44:02.963Z,14.70
2022-12-29T03:46:35.557Z,15.50
2022-12-29T03:49:07.791Z,14.80
2022-12-29T03:51:38.003Z,13.40
2022-12-29T03:54:10.745Z,12.20
2022-12-29T03:56:42.862Z,11.10
2022-12-29T03:59:15.860Z,9.80
2022-12-29T04:01:47.806Z,8.20
2022-12-29T04:04:19.015Z,8.20
2022-12-29T04:06:50.555Z,6.40
2022-12-29T04:09:20.216Z,6.50
2022-12-29T04:11:51.883Z,4.90
2022-12-29T04:14:24.807Z,4.80
2022-12-29T04:16:57.160Z,4.50
2022-12-29T04:19:27.250Z,5.90
2022-12-29T04:21:59.280Z,5.20
2022-12-29T04:24:33.599Z,5.50
2022-12-29T04:27:03.830Z,5.70
2022-12-29T04:29:58.904Z,4.70
2022-12-29T04:32:43.746Z,4.90
2022-12-29T04:35:20.338Z,6.40
2022-12-29T04:37:52.557Z,4.30
2022-12-29T04:40:22.480Z,5.00
2022-12-29T04:42:52.286Z,4.20
2022-12-29T04:45:24.030Z,4.70
2022-12-29T04:48:07.005Z,4.10
2022-12-29T04:50:51.391Z,4.50
2022-12-29T04:53:39.003Z,3.90
2022-12-29T04:56:10.393Z,4.30
2022-12-29T04:58:45.897Z,3.30
2022-12-29T05:01:16.737Z,3.80
2022-12-29T05:03:46.553Z,4.10
2022-12-29T05:06:19.974Z,4.30
2022-12-29T05:08:52.290Z,3.50
2022-12-29T05:11:23.269Z,3.50
2022-12-29T05:13:56.867Z,3.50
2022-12-29T05:16:35.888Z,5.00
2022-12-29T05:19:07.301Z,4.70
2022-12-29T05:21:39.814Z,3.90
2022-12-29T05:24:10.226Z,3.90
2022-12-29T05:26:47.459Z,4.00
2022-12-29T05:32:18.785Z,3.60
2022-12-29T05:35:08.244Z,5.50
2022-12-29T05:37:45.617Z,5.00
2022-12-29T05:40:25.720Z,5.10
2022-12-29T05:43:04.115Z,5.40
2022-12-29T05:45:43.046Z,6.10
2022-12-29T05:48:41.726Z,6.50
2022-12-29T05:51:20.787Z,5.00
2022-12-29T05:53:51.773Z,5.00
2022-12-29T05:56:21.210Z,6.40
2022-12-29T05:58:57.217Z,6.40
2022-12-29T06:01:27.175Z,6.40
2022-12-29T06:03:57.020Z,6.70
2022-12-29T06:06:26.923Z,6.80
2022-12-29T06:08:58.878Z,6.60
2022-12-29T06:11:28.193Z,5.80
2022-12-29T06:14:00.934Z,6.50
2022-12-29T06:16:30.647Z,6.30
2022-12-29T06:19:02.029Z,7.40
2022-12-29T06:21:33.107Z,5.80
2022-12-29T06:24:20.512Z,6.20
2022-12-29T06:26:50.359Z,6.30
2022-12-29T06:29:21.683Z,7.50
2022-12-29T06:31:57.347Z,7.00
2022-12-29T06:34:26.708Z,6.60
2022-12-29T06:36:56.102Z,6.10
2022-12-29T06:39:25.257Z,5.90
2022-12-29T06:42:05.143Z,5.50
2022-12-29T06:44:53.482Z,5.50
2022-12-29T06:47:22.588Z,6.90
2022-12-29T06:49:51.845Z,6.60
2022-12-29T06:52:25.399Z,9.00
2022-12-29T06:55:00.308Z,12.40
2022-12-29T06:57:30.334Z,11.60
2022-12-29T07:00:00.028Z,9.50
2022-12-29T07:02:29.834Z,7.70
2022-12-29T07:04:59.438Z,8.00
2022-12-29T07:07:28.844Z,8.10
2022-12-29T07:09:58.436Z,7.30
2022-12-29T07:12:28.353Z,11.40
2022-12-29T07:14:57.970Z,8.50
2022-12-29T07:17:27.275Z,9.30
2022-12-29T07:19:56.573Z,10.90
2022-12-29T07:22:25.761Z,9.70
2022-12-29T07:24:54.887Z,6.90
2022-12-29T07:27:23.939Z,7.70
2022-12-29T07:29:53.552Z,6.70
2022-12-29T07:32:22.983Z,7.30
2022-12-29T07:34:53.338Z,7.80
2022-12-29T07:37:22.864Z,8.20
2022-12-29T07:39:52.143Z,7.70
2022-12-29T07:42:21.426Z,6.50
2022-12-29T07:44:54.233Z,6.80
2022-12-29T07:47:36.810Z,8.10
2022-12-29T07:50:07.625Z,8.50
2022-12-29T07:52:37.347Z,9.00
2022-12-29T07:55:07.985Z,8.90
2022-12-29T07:57:39.207Z,8.90
2022-12-29T08:00:10.897Z,10.20
2022-12-29T08:02:43.639Z,11.30
2022-12-29T08:05:13.324Z,11.50
2022-12-29T08:07:46.277Z,12.50
2022-12-29T08:10:16.973Z,12.50
2022-12-29T08:12:46.167Z,12.10
2022-12-29T08:15:15.794Z,11.70
2022-12-29T08:17:44.946Z,10.80
2022-12-29T08:20:14.229Z,9.20
2022-12-29T08:22:43.433Z,9.90
2022-12-29T08:25:12.691Z,12.10
2022-12-29T08:27:41.981Z,14.50
2022-12-29T08:30:15.962Z,13.10
2022-12-29T08:32:45.568Z,13.20
2022-12-29T08:35:14.944Z,11.60
2022-12-29T08:37:44.424Z,11.20
2022-12-29T08:40:14.690Z,10.00
2022-12-29T08:42:44.784Z,14.10
2022-12-29T08:45:16.657Z,10.10
2022-12-29T08:47:46.269Z,15.00
2022-12-29T08:50:15.947Z,11.50
2022-12-29T08:52:45.675Z,22.10
2022-12-29T08:55:15.311Z,11.00
2022-12-29T08:57:46.619Z,13.70
2022-12-29T09:00:24.792Z,11.00
2022-12-29T09:02:54.816Z,11.50
2022-12-29T09:05:24.175Z,9.90
2022-12-29T09:07:53.400Z,11.50
2022-12-29T09:10:22.476Z,9.20
2022-12-29T09:12:51.771Z,10.80
2022-12-29T09:15:21.083Z,9.80
2022-12-29T09:17:50.522Z,9.50
2022-12-29T09:20:20.828Z,9.80
2022-12-29T09:22:52.275Z,9.50
2022-12-29T09:25:26.255Z,10.40
2022-12-29T09:28:01.003Z,11.80
2022-12-29T09:30:30.925Z,14.40
2022-12-29T09:33:00.403Z,18.80
2022-12-29T09:35:29.796Z,20.70
2022-12-29T09:38:02.362Z,9.70
2022-12-29T09:40:34.643Z,11.40
2022-12-29T09:43:30.789Z,12.20
2022-12-29T09:46:18.879Z,12.20
2022-12-29T09:49:08.277Z,10.00
2022-12-29T09:51:44.694Z,9.60
2022-12-29T09:55:07.736Z,18.40
2022-12-29T09:58:01.507Z,16.40
2022-12-29T10:00:55.985Z,12.70
2022-12-29T10:03:37.968Z,13.40
2022-12-29T10:06:25.308Z,12.50
2022-12-29T10:09:16.893Z,12.70
2022-12-29T10:12:27.567Z,14.50
2022-12-29T10:15:38.656Z,13.40
2022-12-29T10:21:40.920Z,9.50
2022-12-29T10:24:23.778Z,8.30
2022-12-29T10:26:53.597Z,7.70
2022-12-29T10:29:40.749Z,7.60
2022-12-29T10:32:58.318Z,8.60
2022-12-29T10:35:38.384Z,7.50
2022-12-29T10:38:37.202Z,7.80
2022-12-29T10:41:22.948Z,12.40
2022-12-29T10:43:56.058Z,11.00
2022-12-29T10:46:35.884Z,12.40
2022-12-29T10:49:21.060Z,10.20
2022-12-29T10:51:54.225Z,19.90
2022-12-29T10:54:39.707Z,19.90
2022-12-29T10:57:23.115Z,19.00
2022-12-29T10:59:52.308Z,13.30
2022-12-29T11:03:03.436Z,10.80
2022-12-29T11:05:55.992Z,11.80
2022-12-29T11:08:36.128Z,10.40
2022-12-29T11:11:11.488Z,12.00
2022-12-29T11:13:52.894Z,12.90
2022-12-29T11:16:35.752Z,12.80
2022-12-29T11:19:05.075Z,10.70
2022-12-29T11:21:41.485Z,16.40
2022-12-29T11:24:30.545Z,19.50
2022-12-29T11:27:17.971Z,18.50
2022-12-29T11:29:47.840Z,11.60
2022-12-29T11:32:32.560Z,17.20
2022-12-29T11:35:05.581Z,31.40
2022-12-29T11:37:41.238Z,12.20
2022-12-29T11:40:22.501Z,16.10
2022-12-29T11:43:35.306Z,70.10
2022-12-29T11:46:08.410Z,55.00
2022-12-29T11:48:42.860Z,39.00
2022-12-29T11:53:53.039Z,92.60
2022-12-29T11:56:43.457Z,70.70
2022-12-29T11:59:31.065Z,48.10
2022-12-29T12:02:04.458Z,27.40
2022-12-29T12:04:38.514Z,18.40
2022-12-29T12:07:29.871Z,15.10
2022-12-29T12:10:07.997Z,9.20
2022-12-29T12:12:57.712Z,7.80
2022-12-29T12:15:50.155Z,9.40
2022-12-29T12:18:42.885Z,11.00
2022-12-29T12:21:26.504Z,11.70
2022-12-29T12:24:40.366Z,23.20
2022-12-29T12:27:31.278Z,38.20
2022-12-29T12:30:16.200Z,19.00
2022-12-29T12:33:15.305Z,19.00
2022-12-29T12:36:08.962Z,22.70
2022-12-29T12:39:27.590Z,14.10
2022-12-29T12:42:33.220Z,12.20
2022-12-29T12:45:44.830Z,11.40
2022-12-29T12:48:41.818Z,13.30
2022-12-29T12:51:37.390Z,13.20
2022-12-29T12:54:32.843Z,13.40
2022-12-29T12:57:17.077Z,13.70
2022-12-29T12:59:58.395Z,17.10
2022-12-29T13:02:53.503Z,17.10
2022-12-29T13:05:58.601Z,17.70
2022-12-29T13:09:07.764Z,17.40
2022-12-29T13:12:40.198Z,13.30
2022-12-29T13:15:12.155Z,12.30
2022-12-29T13:18:00.744Z,15.20
2022-12-29T13:21:18.567Z,14.20
2022-12-29T13:24:00.799Z,14.90
2022-12-29T13:26:43.823Z,16.60
2022-12-29T13:29:37.570Z,17.20
2022-12-29T13:32:25.795Z,13.80
2022-12-29T13:35:26.052Z,22.00
2022-12-29T13:38:18.697Z,23.40
2022-12-29T13:40:56.031Z,12.50
2022-12-29T13:43:34.661Z,12.00
2022-12-29T13:46:32.697Z,11.10
2022-12-29T13:49:29.150Z,11.30
2022-12-29T13:52:20.479Z,18.90
2022-12-29T13:55:34.839Z,37.10
2022-12-29T13:58:37.778Z,28.00
2022-12-29T14:01:58.109Z,16.20
2022-12-29T14:04:36.608Z,16.30
2022-12-29T14:07:19.036Z,15.40
2022-12-29T14:09:57.842Z,13.60
2022-12-29T14:12:36.072Z,12.90
2022-12-29T14:15:11.513Z,15.60
2022-12-29T14:18:05.064Z,18.00
2022-12-29T14:20:35.999Z,16.40
2022-12-29T14:23:11.904Z,25.20
2022-12-29T14:26:33.420Z,24.50
2022-12-29T14:29:50.319Z,14.70
2022-12-29T14:32:30.463Z,14.70
2022-12-29T14:35:50.606Z,24.10
2022-12-29T14:38:25.525Z,36.10
2022-12-29T14:41:35.917Z,20.50
2022-12-29T14:44:08.528Z,16.80
2022-12-29T14:47:10.070Z,14.10
2022-12-29T14:49:45.280Z,13.00
2022-12-29T14:52:21.133Z,14.00
2022-12-29T14:54:55.817Z,16.80
2022-12-29T14:57:48.714Z,16.30
2022-12-29T15:00:34.019Z,15.70
2022-12-29T15:03:14.166Z,18.10
2022-12-29T15:05:57.706Z,22.90
2022-12-29T15:08:32.034Z,32.30
2022-12-29T15:11:24.763Z,31.90
2022-12-29T15:13:53.980Z,27.10
2022-12-29T15:16:32.965Z,24.60
2022-12-29T15:19:06.909Z,21.00
2022-12-29T15:21:37.869Z,19.70
2022-12-29T15:24:07.635Z,16.90
2022-12-29T15:26:42.480Z,16.90
2022-12-29T15:30:02.207Z,16.00
2022-12-29T15:32:44.342Z,15.60
2022-12-29T15:35:33.688Z,15.70
2022-12-29T15:38:31.177Z,17.00
2022-12-29T15:41:58.511Z,15.40
2022-12-29T15:44:43.470Z,24.10
2022-12-29T15:47:29.823Z,24.20
2022-12-29T15:50:17.625Z,15.10
2022-12-29T15:52:47.239Z,14.00
2022-12-29T15:55:36.520Z,13.20
2022-12-29T15:58:20.452Z,12.10
2022-12-29T16:01:02.849Z,12.70
2022-12-29T16:03:37.456Z,14.70
2022-12-29T16:06:26.520Z,22.80
2022-12-29T16:09:08.098Z,29.70
2022-12-29T16:11:41.518Z,20.50
2022-12-29T16:14:18.866Z,17.70
2022-12-29T16:16:50.844Z,14.90
2022-12-29T16:19:28.111Z,13.40
2022-12-29T16:22:02.032Z,13.60
2022-12-29T16:24:34.466Z,14.50
2022-12-29T16:27:38.388Z,19.10
2022-12-29T16:30:33.921Z,12.30
2022-12-29T16:33:07.127Z,12.70
2022-12-29T16:35:49.525Z,13.70
2022-12-29T16:38:34.518Z,13.60
2022-12-29T16:41:04.729Z,13.90
2022-12-29T16:43:43.126Z,13.50
2022-12-29T16:46:31.852Z,12.70
2022-12-29T16:49:12.632Z,14.10
2022-12-29T16:51:46.928Z,14.40
2022-12-29T16:54:25.065Z,13.50
2022-12-29T16:56:54.712Z,15.30
2022-12-29T16:59:43.940Z,15.50
2022-12-29T17:02:22.559Z,19.60
2022-12-29T17:04:55.125Z,19.90
2022-12-29T17:07:29.095Z,21.60
2022-12-29T17:10:03.775Z,15.50
2022-12-29T17:12:37.724Z,14.50
2022-12-29T17:15:33.305Z,14.80
2022-12-29T17:18:13.360Z,14.90
2022-12-29T17:20:46.503Z,17.80
2022-12-29T17:23:25.950Z,19.20
2022-12-29T17:25:59.505Z,16.60
2022-12-29T17:28:32.353Z,13.90
2022-12-29T17:31:06.040Z,14.00
2022-12-29T17:33:40.287Z,14.70
2022-12-29T17:36:17.352Z,14.00
2022-12-29T17:38:47.447Z,15.30
2022-12-29T17:41:20.048Z,16.10
2022-12-29T17:43:51.280Z,15.40
2022-12-29T17:46:22.773Z,13.50
2022-12-29T17:48:54.047Z,14.80
2022-12-29T17:51:24.936Z,14.90
2022-12-29T17:53:54.580Z,14.60
2022-12-29T17:56:24.205Z,15.40
2022-12-29T17:59:00.829Z,15.10
2022-12-29T18:01:36.219Z,13.70
2022-12-29T18:04:07.612Z,15.90
2022-12-29T18:06:36.824Z,15.60
2022-12-29T18:09:08.964Z,16.10
2022-12-29T18:11:43.647Z,13.40
2022-12-29T18:14:17.786Z,14.30
2022-12-29T18:16:59.347Z,14.00
2022-12-29T18:19:33.954Z,14.40
2022-12-29T18:22:05.309Z,14.80
2022-12-29T18:24:34.710Z,16.60
2022-12-29T18:27:19.203Z,16.60
2022-12-29T18:29:50.363Z,18.70
2022-12-29T18:32:24.278Z,14.80
2022-12-29T18:34:54.103Z,17.40
2022-12-29T18:37:23.685Z,15.90
2022-12-29T18:39:53.141Z,16.60
2022-12-29T18:42:22.495Z,15.60
2022-12-29T18:44:55.569Z,16.00
2022-12-29T18:47:24.779Z,16.10
2022-12-29T18:49:58.321Z,17.10
2022-12-29T18:52:47.992Z,15.60
2022-12-29T18:58:17.783Z,17.40
2022-12-29T19:00:53.496Z,17.90
2022-12-29T19:03:26.145Z,17.20
2022-12-29T19:13:01.022Z,18.90
2022-12-29T19:15:34.347Z,17.70
2022-12-29T19:18:42.482Z,18.90
2022-12-29T19:20:57.995Z,17.70
2022-12-29T19:23:28.574Z,22.70
2022-12-29T19:25:57.900Z,18.10
2022-12-29T19:28:29.538Z,16.70
2022-12-29T19:31:02.840Z,16.30
2022-12-29T19:33:32.670Z,17.50
2022-12-29T19:36:08.310Z,15.50
2022-12-29T19:38:39.607Z,15.20
2022-12-29T19:41:15.622Z,16.10
2022-12-29T19:43:50.795Z,16.80
2022-12-29T19:46:24.644Z,15.70
2022-12-29T19:49:05.998Z,16.30
2022-12-29T19:51:39.662Z,16.90
2022-12-29T19:54:11.483Z,17.40
2022-12-29T19:56:44.610Z,16.70
2022-12-29T19:59:14.140Z,15.40
2022-12-29T20:01:44.025Z,17.60
2022-12-29T20:04:13.540Z,16.90
2022-12-29T20:06:48.831Z,15.10
2022-12-29T20:09:28.654Z,14.60
2022-12-29T20:12:00.254Z,15.80
2022-12-29T20:14:29.681Z,17.20
2022-12-29T20:17:10.686Z,15.30
2022-12-29T20:19:53.281Z,16.60
2022-12-29T20:22:23.659Z,17.00
2022-12-29T20:25:05.129Z,13.60
2022-12-29T20:27:43.304Z,15.60
2022-12-29T20:30:14.264Z,16.00
2022-12-29T20:32:46.879Z,14.60
2022-12-29T20:35:22.952Z,16.30
2022-12-29T20:37:53.263Z,17.30
2022-12-29T20:40:23.244Z,16.10
2022-12-29T20:42:54.265Z,22.40
2022-12-29T20:45:26.508Z,34.80
2022-12-29T20:47:56.206Z,18.10
2022-12-29T20:50:29.083Z,15.40
2022-12-29T20:52:58.732Z,16.10
2022-12-29T20:55:28.381Z,16.80
2022-12-29T20:58:23.176Z,17.30
2022-12-29T21:00:51.898Z,16.40
2022-12-29T21:03:23.047Z,16.80
2022-12-29T21:05:54.270Z,15.80
2022-12-29T21:08:24.948Z,16.20
2022-12-29T21:10:57.503Z,14.40
2022-12-29T21:13:31.248Z,15.20
2022-12-29T21:16:08.351Z,29.00
2022-12-29T21:18:38.272Z,17.30
2022-12-29T21:21:20.097Z,16.50
2022-12-29T21:23:50.884Z,17.40
2022-12-29T21:26:24.182Z,16.30
2022-12-29T21:28:53.691Z,16.30
2022-12-29T21:31:33.660Z,15.20
2022-12-29T21:34:05.733Z,16.60
2022-12-29T21:39:05.145Z,16.80
2022-12-29T21:41:35.284Z,17.10
2022-12-29T21:44:23.410Z,18.80
2022-12-29T21:46:52.779Z,17.90
2022-12-29T21:49:26.419Z,17.40
2022-12-29T21:51:57.735Z,17.90
2022-12-29T21:54:48.767Z,17.00
2022-12-29T21:57:38.205Z,16.20
2022-12-29T22:00:28.824Z,16.20
2022-12-29T22:03:22.562Z,18.30
2022-12-29T22:06:14.047Z,26.30
2022-12-29T22:09:02.300Z,18.30
2022-12-29T22:11:50.567Z,17.30
2022-12-29T22:14:23.611Z,16.90
2022-12-29T22:16:56.160Z,18.10
2022-12-29T22:19:28.494Z,19.40
2022-12-29T22:24:29.679Z,20.60
2022-12-29T22:26:59.339Z,22.30
2022-12-29T22:29:28.619Z,22.80
2022-12-29T22:31:57.978Z,22.60
2022-12-29T22:34:27.550Z,23.30
2022-12-29T22:36:57.027Z,22.30
2022-12-29T22:39:29.893Z,21.70
2022-12-29T22:41:59.399Z,18.80
2022-12-29T22:44:31.513Z,17.00
2022-12-29T22:47:02.019Z,18.90
2022-12-29T22:49:31.801Z,18.90
2022-12-29T22:52:01.661Z,18.10
2022-12-29T22:54:32.059Z,18.70
2022-12-29T22:57:02.992Z,19.10
2022-12-29T22:59:33.079Z,20.30
2022-12-29T23:02:02.360Z,19.20
2022-12-29T23:10:11.081Z,17.70
2022-12-29T23:12:42.965Z,18.70
2022-12-29T23:15:15.004Z,18.70
2022-12-29T23:17:46.257Z,16.30
2022-12-29T23:20:15.498Z,19.20
2022-12-29T23:22:44.956Z,17.50
2022-12-29T23:25:14.729Z,19.40
2022-12-29T23:27:54.563Z,20.20
2022-12-29T23:30:24.620Z,19.80
2022-12-29T23:33:03.765Z,21.50
2022-12-29T23:35:35.797Z,21.30
2022-12-29T23:38:05.131Z,19.20
2022-12-29T23:40:34.410Z,18.80
2022-12-29T23:43:03.725Z,18.90
2022-12-29T23:45:36.870Z,18.40
2022-12-29T23:48:06.668Z,18.00
2022-12-29T23:50:39.090Z,17.10
2022-12-29T23:53:10.303Z,17.60
2022-12-29T23:55:43.526Z,16.90
2022-12-29T23:58:12.675Z,17.10
